Time;durP1;ratioP1;P1;durP2;ratioP2;P2;SDS_P1;SDS_P2;PMS_P1;PMS_P2;Temp;Humidity;BMP_temperature;BMP_pressure;BME280_temperature;BME280_humidity;BME280_pressure;Samples;Min_cycle;Max_cycle;Signal;HPM_P1;HPM_P2
2023/02/08 00:00:39;;;;;;;16.55;8.52;;;2.20;99.90;;;;;;4097192;28;20442;-67
2023/02/08 00:02:40;;;;;;;15.73;8.18;;;2.20;99.90;;;;;;4097399;28;20031;-67
2023/02/08 00:04:40;;;;;;;17.50;8.88;;;2.20;99.90;;;;;;4081634;28;20123;-68
2023/02/08 00:06:41;;;;;;;19.75;9.55;;;2.20;99.90;;;;;;4097371;28;20507;-68
2023/02/08 00:08:42;;;;;;;16.92;8.98;;;2.20;99.90;;;;;;4097072;28;20039;-67
2023/02/08 00:10:43;;;;;;;17.92;9.02;;;2.20;99.90;;;;;;4096747;28;20047;-68
2023/02/08 00:12:43;;;;;;;15.30;9.00;;;2.20;99.90;;;;;;4096204;28;20036;-68
2023/02/08 00:14:44;;;;;;;15.45;8.60;;;2.20;99.90;;;;;;4095108;28;21446;-68
2023/02/08 00:16:44;;;;;;;15.57;8.20;;;2.10;99.90;;;;;;4092924;28;20542;-68
2023/02/08 00:18:45;;;;;;;12.88;8.00;;;2.10;99.90;;;;;;4095689;28;20050;-67
2023/02/08 00:20:46;;;;;;;12.27;7.38;;;2.10;99.90;;;;;;4093599;28;20041;-66
2023/02/08 00:22:47;;;;;;;12.60;7.53;;;2.00;99.90;;;;;;4096496;28;20044;-68
2023/02/08 00:24:49;;;;;;;13.90;8.20;;;2.00;99.90;;;;;;4092984;28;20126;-68
2023/02/08 00:26:50;;;;;;;16.08;7.53;;;2.00;99.90;;;;;;4095576;28;20293;-68
2023/02/08 00:28:51;;;;;;;13.73;8.00;;;2.00;99.90;;;;;;4095539;28;20556;-67
2023/02/08 00:30:52;;;;;;;13.77;7.20;;;2.00;99.90;;;;;;4094467;28;20039;-68
2023/02/08 00:32:52;;;;;;;14.35;7.28;;;1.90;99.90;;;;;;4096051;28;20023;-68
2023/02/08 00:34:53;;;;;;;13.50;7.90;;;1.90;99.90;;;;;;4094660;28;20031;-68
2023/02/08 00:36:53;;;;;;;12.80;7.60;;;1.90;99.90;;;;;;4094562;28;20043;-67
2023/02/08 00:38:54;;;;;;;15.88;7.78;;;1.90;99.90;;;;;;4095745;28;20039;-68
2023/02/08 00:40:55;;;;;;;14.45;7.70;;;1.90;99.90;;;;;;4095790;28;20044;-67
2023/02/08 00:42:55;;;;;;;14.15;7.90;;;1.90;99.90;;;;;;4095920;28;20482;-68
2023/02/08 00:44:56;;;;;;;14.07;7.72;;;1.90;99.90;;;;;;4095201;28;20151;-67
2023/02/08 00:46:56;;;;;;;16.48;7.72;;;1.90;99.90;;;;;;4096358;28;20043;-67
2023/02/08 00:48:57;;;;;;;14.18;7.47;;;1.90;99.90;;;;;;4095668;28;20035;-68
2023/02/08 00:51:12;;;;;;;16.60;7.53;;;1.90;99.90;;;;;;4094070;28;20588;-68
2023/02/08 00:53:13;;;;;;;14.35;8.20;;;1.90;99.90;;;;;;4093515;28;20039;-67
2023/02/08 00:55:13;;;;;;;13.68;6.80;;;1.90;99.90;;;;;;4094171;28;20038;-68
2023/02/08 00:57:14;;;;;;;14.73;7.43;;;1.80;99.90;;;;;;4097688;28;20055;-68
2023/02/08 00:59:15;;;;;;;14.68;7.00;;;1.80;99.90;;;;;;4094695;28;20042;-68
2023/02/08 01:01:15;;;;;;;13.70;7.75;;;1.80;99.90;;;;;;4096382;28;20459;-68
2023/02/08 01:03:16;;;;;;;16.73;8.13;;;1.80;99.90;;;;;;4096579;28;20032;-67
2023/02/08 01:05:17;;;;;;;13.35;7.70;;;1.80;99.90;;;;;;4094272;28;20039;-68
2023/02/08 01:07:17;;;;;;;15.88;8.05;;;1.80;99.90;;;;;;4089784;28;20573;-68
2023/02/08 01:09:18;;;;;;;11.70;7.40;;;1.80;99.90;;;;;;4095463;28;20074;-69
2023/02/08 01:11:21;;;;;;;12.95;7.30;;;1.80;99.90;;;;;;4082763;28;20031;-67
2023/02/08 01:13:22;;;;;;;14.35;8.70;;;1.70;99.90;;;;;;4086799;28;20178;-67
2023/02/08 01:15:22;;;;;;;15.13;8.25;;;1.70;99.90;;;;;;4073591;29;20503;-67
2023/02/08 01:17:23;;;;;;;14.65;7.82;;;1.70;99.90;;;;;;4089324;28;20422;-67
2023/02/08 01:19:23;;;;;;;12.50;7.25;;;1.70;99.90;;;;;;4092388;28;20047;-68
2023/02/08 01:21:28;;;;;;;14.00;7.63;;;1.70;99.90;;;;;;4088754;28;20036;-67
2023/02/08 01:23:28;;;;;;;12.93;7.22;;;1.70;99.90;;;;;;4089355;28;20089;-68
2023/02/08 01:25:29;;;;;;;14.43;7.63;;;1.70;99.90;;;;;;4072984;28;20075;-68
2023/02/08 01:27:30;;;;;;;12.93;7.00;;;1.70;99.90;;;;;;4097275;28;20499;-68
2023/02/08 01:29:30;;;;;;;14.85;7.60;;;1.70;99.90;;;;;;4095364;28;20023;-68
2023/02/08 01:31:37;;;;;;;14.07;7.72;;;1.70;99.90;;;;;;4094972;28;20119;-68
2023/02/08 01:33:38;;;;;;;13.82;7.57;;;1.70;99.90;;;;;;4095706;28;20475;-67
2023/02/08 01:35:38;;;;;;;16.08;7.45;;;1.70;99.90;;;;;;4094062;28;20046;-67
2023/02/08 01:37:39;;;;;;;15.18;7.72;;;1.70;99.90;;;;;;4095251;28;20415;-68
2023/02/08 01:39:39;;;;;;;14.13;8.07;;;1.70;99.90;;;;;;4095112;28;20391;-67
2023/02/08 01:41:43;;;;;;;15.05;7.55;;;1.70;99.90;;;;;;4094539;28;20046;-67
2023/02/08 01:44:04;;;;;;;15.02;7.68;;;1.70;99.90;;;;;;4095105;28;20102;-68
2023/02/08 01:46:05;;;;;;;13.95;7.65;;;1.70;99.90;;;;;;4092123;28;20446;-68
2023/02/08 01:48:12;;;;;;;13.48;7.88;;;1.70;99.90;;;;;;4095547;28;20090;-67
2023/02/08 01:50:14;;;;;;;13.85;7.53;;;1.70;99.90;;;;;;4093010;28;20059;-68
2023/02/08 01:52:19;;;;;;;15.67;7.87;;;1.70;99.90;;;;;;4092831;28;20108;-67
2023/02/08 01:54:25;;;;;;;12.05;7.20;;;1.70;99.90;;;;;;4093851;28;20046;-67
2023/02/08 01:56:29;;;;;;;13.80;7.53;;;1.60;99.90;;;;;;4089686;28;20596;-67
2023/02/08 01:58:33;;;;;;;16.23;7.97;;;1.70;99.90;;;;;;4092213;28;20028;-67
2023/02/08 02:00:34;;;;;;;14.93;7.55;;;1.70;99.90;;;;;;4092815;28;20032;-67
2023/02/08 02:02:36;;;;;;;14.18;7.07;;;1.70;99.90;;;;;;4093916;28;20037;-68
2023/02/08 02:04:36;;;;;;;12.10;6.70;;;1.70;99.90;;;;;;4094332;28;20062;-67
2023/02/08 02:06:45;;;;;;;14.18;7.22;;;1.60;99.90;;;;;;4094007;28;20036;-68
2023/02/08 02:08:56;;;;;;;13.93;6.90;;;1.60;99.90;;;;;;4094622;28;20770;-67
2023/02/08 02:10:57;;;;;;;12.90;7.00;;;1.60;99.90;;;;;;4093040;28;20105;-68
2023/02/08 02:13:22;;;;;;;12.23;7.45;;;1.60;99.90;;;;;;4093291;28;20439;-68
2023/02/08 02:15:22;;;;;;;12.63;6.68;;;1.60;99.90;;;;;;4092427;28;20478;-68
2023/02/08 02:17:23;;;;;;;15.10;7.38;;;1.60;99.90;;;;;;4093935;28;20035;-67
2023/02/08 02:19:30;;;;;;;12.27;6.90;;;1.50;99.90;;;;;;4095349;28;20034;-68
2023/02/08 02:21:54;;;;;;;14.23;7.20;;;1.50;99.90;;;;;;4093082;28;20495;-68
2023/02/08 02:24:13;;;;;;;12.00;6.32;;;1.50;99.90;;;;;;4092910;28;20487;-67
2023/02/08 02:26:17;;;;;;;11.93;6.47;;;1.50;99.90;;;;;;4098601;28;20082;-68
2023/02/08 02:28:49;;;;;;;11.63;7.05;;;1.50;99.90;;;;;;4094236;28;20095;-68
2023/02/08 02:31:14;;;;;;;13.65;7.07;;;1.40;99.90;;;;;;4092412;28;20114;-68
2023/02/08 02:33:30;;;;;;;12.30;6.90;;;1.40;99.90;;;;;;4097583;28;20051;-67
2023/02/08 02:35:56;;;;;;;13.00;6.75;;;1.40;99.90;;;;;;4096150;28;20046;-68
2023/02/08 02:38:18;;;;;;;12.13;7.22;;;1.40;99.90;;;;;;4093706;28;20028;-69
2023/02/08 02:40:57;;;;;;;12.75;6.93;;;1.40;99.90;;;;;;4090946;28;20546;-68
2023/02/08 02:45:52;;;;;;;13.13;7.18;;;1.30;99.90;;;;;;4091315;28;20877;-68
2023/02/08 02:48:18;;;;;;;13.93;7.38;;;1.30;99.90;;;;;;4095094;28;20051;-68
2023/02/08 02:50:27;;;;;;;11.50;6.90;;;1.30;99.90;;;;;;4091324;28;20094;-67
2023/02/08 02:52:33;;;;;;;13.73;7.65;;;1.30;99.90;;;;;;4092112;28;20032;-67
2023/02/08 02:54:40;;;;;;;12.43;6.82;;;1.30;99.90;;;;;;4095535;28;20078;-68
2023/02/08 02:56:46;;;;;;;15.55;8.30;;;1.30;99.90;;;;;;4091117;28;20079;-68
2023/02/08 02:58:47;;;;;;;12.77;7.18;;;1.30;99.90;;;;;;4090353;28;20175;-67
2023/02/08 03:00:56;;;;;;;14.43;7.80;;;1.30;99.90;;;;;;4091275;28;20086;-68
2023/02/08 03:02:58;;;;;;;14.23;7.72;;;1.30;99.90;;;;;;4074363;29;20100;-67
2023/02/08 03:04:58;;;;;;;13.53;7.17;;;1.30;99.90;;;;;;4091283;28;21048;-67
2023/02/08 03:07:02;;;;;;;13.95;7.95;;;1.30;99.90;;;;;;4094386;28;20342;-68
2023/02/08 03:09:24;;;;;;;12.73;6.80;;;1.30;99.90;;;;;;4094466;28;20110;-67
2023/02/08 03:11:34;;;;;;;11.73;6.43;;;1.30;99.90;;;;;;4092745;28;20047;-67
2023/02/08 03:13:59;;;;;;;13.90;7.40;;;1.30;99.90;;;;;;4088885;28;20499;-67
2023/02/08 03:16:16;;;;;;;15.30;7.45;;;1.20;99.90;;;;;;4091845;28;20042;-67
2023/02/08 03:18:40;;;;;;;12.65;6.95;;;1.20;99.90;;;;;;4096861;28;20518;-68
2023/02/08 03:20:49;;;;;;;12.90;7.15;;;1.20;99.90;;;;;;4095438;28;20027;-68
2023/02/08 03:23:08;;;;;;;12.18;7.13;;;1.20;99.90;;;;;;4097248;28;20027;-67
2023/02/08 03:25:22;;;;;;;10.85;6.50;;;1.20;99.90;;;;;;4089812;28;20031;-69
2023/02/08 03:27:35;;;;;;;12.07;7.25;;;1.10;99.90;;;;;;4094000;28;20039;-67
2023/02/08 03:29:54;;;;;;;;;;;1.10;99.90;;;;;;4089829;28;20035;-68
2023/02/08 03:32:16;;;;;;;13.60;6.60;;;1.10;99.90;;;;;;4090624;28;20353;-68
2023/02/08 03:34:27;;;;;;;14.80;6.90;;;1.10;99.90;;;;;;4090212;28;20043;-68
2023/02/08 03:36:37;;;;;;;13.48;7.00;;;1.10;99.90;;;;;;4077089;28;20091;-67
2023/02/08 03:38:42;;;;;;;11.85;6.38;;;1.00;99.90;;;;;;4094450;28;20440;-68
2023/02/08 03:40:46;;;;;;;12.52;6.93;;;1.00;99.90;;;;;;4093734;28;20495;-68
2023/02/08 03:42:48;;;;;;;14.05;6.85;;;1.00;99.90;;;;;;4097262;28;20032;-67
2023/02/08 03:44:59;;;;;;;12.10;6.40;;;1.00;99.90;;;;;;4092915;28;20050;-68
2023/02/08 03:47:18;;;;;;;12.40;6.38;;;1.00;99.90;;;;;;4093801;28;20084;-68
2023/02/08 03:49:26;;;;;;;12.48;6.40;;;0.90;99.90;;;;;;4092205;28;20034;-68
2023/02/08 03:51:29;;;;;;;14.52;7.20;;;0.90;99.90;;;;;;4094579;28;20177;-68
2023/02/08 03:53:37;;;;;;;12.93;6.93;;;0.90;99.90;;;;;;4096568;28;20042;-68
2023/02/08 03:55:39;;;;;;;11.90;7.25;;;0.90;99.90;;;;;;4094166;28;20056;-68
2023/02/08 03:57:45;;;;;;;;;;;0.90;99.90;;;;;;4096477;28;20115;-66
2023/02/08 03:59:53;;;;;;;14.25;7.10;;;0.90;99.90;;;;;;4089329;28;19910;-67
2023/02/08 04:01:58;;;;;;;16.08;7.40;;;0.90;99.90;;;;;;4091585;28;20046;-67
2023/02/08 04:03:59;;;;;;;14.20;7.13;;;0.90;99.90;;;;;;4095777;28;20166;-68
2023/02/08 04:06:00;;;;;;;11.27;6.90;;;0.90;99.90;;;;;;4092679;28;20039;-68
2023/02/08 04:08:01;;;;;;;12.82;6.90;;;0.90;99.90;;;;;;4095328;28;20058;-68
2023/02/08 04:10:02;;;;;;;13.88;6.90;;;0.90;99.90;;;;;;4093674;28;20066;-67
2023/02/08 04:12:04;;;;;;;13.10;6.65;;;0.80;99.90;;;;;;4096045;28;20134;-68
2023/02/08 04:14:04;;;;;;;12.95;6.95;;;0.80;99.90;;;;;;4097475;28;20034;-68
2023/02/08 04:16:05;;;;;;;12.88;6.65;;;0.80;99.90;;;;;;4094051;28;20031;-68
2023/02/08 04:18:06;;;;;;;11.23;6.05;;;0.80;99.90;;;;;;4094491;28;20043;-68
2023/02/08 04:20:07;;;;;;;11.73;7.25;;;0.80;99.90;;;;;;4098040;28;20035;-69
2023/02/08 04:22:07;;;;;;;15.55;7.07;;;0.70;99.90;;;;;;4099364;28;20038;-68
2023/02/08 04:24:08;;;;;;;13.50;7.00;;;0.70;99.90;;;;;;4098140;28;20158;-68
2023/02/08 04:26:09;;;;;;;14.48;6.68;;;0.60;99.90;;;;;;4082260;28;20032;-67
2023/02/08 04:28:09;;;;;;;12.02;7.00;;;0.60;99.90;;;;;;4101219;28;20119;-67
2023/02/08 04:30:10;;;;;;;15.13;8.05;;;0.60;99.90;;;;;;4097309;28;20019;-67
2023/02/08 04:32:12;;;;;;;15.02;7.18;;;0.60;99.90;;;;;;4100068;28;20062;-67
2023/02/08 04:34:12;;;;;;;18.23;7.95;;;0.70;99.90;;;;;;4099093;28;20035;-67
2023/02/08 04:36:13;;;;;;;14.68;7.25;;;0.70;99.90;;;;;;4095961;28;20107;-67
2023/02/08 04:38:13;;;;;;;17.73;8.38;;;0.70;99.90;;;;;;4096588;28;20023;-67
2023/02/08 04:40:14;;;;;;;12.88;7.32;;;0.70;99.90;;;;;;4097666;28;20031;-68
2023/02/08 04:42:15;;;;;;;12.90;6.68;;;0.70;99.90;;;;;;4097757;28;20031;-67
2023/02/08 04:44:15;;;;;;;13.40;6.95;;;0.70;99.90;;;;;;4097316;28;20043;-68
2023/02/08 04:46:16;;;;;;;12.60;6.85;;;0.60;99.90;;;;;;4094154;28;20059;-68
2023/02/08 04:48:17;;;;;;;11.27;6.55;;;0.60;99.90;;;;;;4098959;28;20494;-67
2023/02/08 04:50:18;;;;;;;13.70;7.15;;;0.60;99.90;;;;;;4093988;28;20031;-68
2023/02/08 04:52:18;;;;;;;13.60;6.93;;;0.50;99.90;;;;;;4095696;28;20035;-67
2023/02/08 04:54:19;;;;;;;13.45;6.90;;;0.50;99.90;;;;;;4095689;28;20041;-66
2023/02/08 04:56:20;;;;;;;11.85;7.15;;;0.40;99.90;;;;;;4097683;28;20036;-66
2023/02/08 04:58:21;;;;;;;14.85;7.72;;;0.40;99.90;;;;;;4097141;28;20049;-66
2023/02/08 05:00:22;;;;;;;14.75;7.75;;;0.30;99.90;;;;;;4099749;28;20042;-66
2023/02/08 05:02:22;;;;;;;15.43;8.00;;;0.30;99.90;;;;;;4096843;28;20507;-67
2023/02/08 05:04:23;;;;;;;15.05;7.65;;;0.30;99.90;;;;;;4096017;28;20041;-66
2023/02/08 05:06:23;;;;;;;17.27;8.20;;;0.30;99.90;;;;;;4084194;28;20475;-66
2023/02/08 05:08:24;;;;;;;15.85;8.50;;;0.40;99.90;;;;;;4097004;28;20078;-66
2023/02/08 05:10:25;;;;;;;14.43;8.10;;;0.40;99.90;;;;;;4094938;28;20109;-67
2023/02/08 05:12:26;;;;;;;17.05;8.73;;;0.40;99.90;;;;;;4089461;28;20394;-66
2023/02/08 05:14:26;;;;;;;15.38;8.20;;;0.40;99.90;;;;;;4086028;28;20055;-66
2023/02/08 05:16:27;;;;;;;17.20;9.07;;;0.40;99.90;;;;;;4090998;28;20036;-66
2023/02/08 05:18:27;;;;;;;16.75;8.95;;;0.50;99.90;;;;;;4094563;28;20035;-65
2023/02/08 05:20:29;;;;;;;16.17;8.38;;;0.50;99.90;;;;;;4095214;28;20138;-67
2023/02/08 05:22:31;;;;;;;16.50;8.07;;;0.50;99.90;;;;;;4093696;28;20086;-66
2023/02/08 05:24:32;;;;;;;18.70;8.63;;;0.50;99.90;;;;;;4093832;28;20431;-66
2023/02/08 05:26:32;;;;;;;16.63;8.27;;;0.50;99.90;;;;;;4090471;28;20115;-66
2023/02/08 05:28:33;;;;;;;15.85;8.93;;;0.50;99.90;;;;;;4099127;28;20032;-66
2023/02/08 05:30:33;;;;;;;15.38;7.53;;;0.40;99.90;;;;;;4096531;28;20118;-66
2023/02/08 05:32:34;;;;;;;13.48;7.68;;;0.50;99.90;;;;;;4093030;28;20099;-66
2023/02/08 05:34:36;;;;;;;12.13;6.88;;;0.50;99.90;;;;;;4090670;28;20043;-66
2023/02/08 05:36:37;;;;;;;14.13;7.47;;;0.40;99.90;;;;;;4092007;28;20039;-66
2023/02/08 05:38:37;;;;;;;13.52;7.70;;;0.50;99.90;;;;;;4096173;28;20047;-68
2023/02/08 05:40:38;;;;;;;13.07;7.57;;;0.40;99.90;;;;;;4093327;28;20368;-66
2023/02/08 05:42:41;;;;;;;18.33;7.82;;;0.40;99.90;;;;;;4100442;28;20034;-66
2023/02/08 05:44:42;;;;;;;15.80;7.80;;;0.40;99.90;;;;;;4091563;28;20032;-65
2023/02/08 05:46:42;;;;;;;15.77;7.80;;;0.40;99.90;;;;;;4094019;28;20070;-66
2023/02/08 05:48:43;;;;;;;14.70;7.95;;;0.40;99.90;;;;;;4094393;28;20035;-67
2023/02/08 05:50:44;;;;;;;14.18;7.55;;;0.40;99.90;;;;;;4089287;28;20039;-66
2023/02/08 05:52:44;;;;;;;12.13;7.03;;;0.40;99.90;;;;;;4087773;28;20028;-66
2023/02/08 05:54:45;;;;;;;17.25;7.40;;;0.40;99.90;;;;;;4090242;28;20043;-67
2023/02/08 05:56:46;;;;;;;15.65;7.72;;;0.40;99.90;;;;;;4091602;28;20050;-66
2023/02/08 05:58:47;;;;;;;16.50;7.57;;;0.40;99.90;;;;;;4096823;28;20054;-66
2023/02/08 06:00:47;;;;;;;15.70;7.93;;;0.40;99.90;;;;;;4094630;28;20043;-66
2023/02/08 06:02:48;;;;;;;16.70;8.02;;;0.40;99.90;;;;;;4094261;28;20111;-67
2023/02/08 06:04:49;;;;;;;13.90;7.28;;;0.30;99.90;;;;;;4091297;28;20051;-66
2023/02/08 06:06:49;;;;;;;14.32;7.55;;;0.30;99.90;;;;;;4091552;28;20070;-66
2023/02/08 06:08:50;;;;;;;17.33;8.18;;;0.40;99.90;;;;;;4093401;28;20047;-66
2023/02/08 06:10:50;;;;;;;14.50;7.75;;;0.40;99.90;;;;;;4090871;28;20047;-67
2023/02/08 06:12:51;;;;;;;14.23;6.68;;;0.30;99.90;;;;;;4092729;28;20470;-67
2023/02/08 06:14:51;;;;;;;16.42;8.02;;;0.40;99.90;;;;;;4091820;28;20477;-66
2023/02/08 06:16:52;;;;;;;14.07;7.43;;;0.30;99.90;;;;;;4083469;28;20058;-66
2023/02/08 06:18:52;;;;;;;13.23;7.30;;;0.30;99.90;;;;;;4096937;28;20043;-65
2023/02/08 06:20:54;;;;;;;18.13;8.20;;;0.30;99.90;;;;;;4088412;28;20038;-65
2023/02/08 06:22:55;;;;;;;15.70;7.78;;;0.30;99.90;;;;;;4088753;28;20075;-66
2023/02/08 06:24:55;;;;;;;15.82;8.43;;;0.30;99.90;;;;;;4091844;28;20184;-66
2023/02/08 06:26:56;;;;;;;16.63;7.78;;;0.30;99.90;;;;;;4093927;28;20126;-66
2023/02/08 06:28:58;;;;;;;13.02;7.90;;;0.30;99.90;;;;;;4097779;28;20035;-66
2023/02/08 06:30:58;;;;;;;16.50;8.70;;;0.30;99.90;;;;;;4093484;28;20031;-66
2023/02/08 06:32:59;;;;;;;16.40;8.63;;;0.30;99.90;;;;;;4092360;28;20154;-66
2023/02/08 06:35:00;;;;;;;17.23;8.32;;;0.30;99.90;;;;;;4090830;28;20558;-67
2023/02/08 06:37:01;;;;;;;16.00;8.00;;;0.30;99.90;;;;;;4091896;28;20171;-66
2023/02/08 06:39:02;;;;;;;14.70;8.07;;;0.30;99.90;;;;;;4098666;28;20167;-67
2023/02/08 06:41:02;;;;;;;15.23;8.23;;;0.30;99.90;;;;;;4087960;28;20191;-66
2023/02/08 06:43:03;;;;;;;14.63;7.90;;;0.30;99.90;;;;;;4098127;28;20064;-67
2023/02/08 06:45:04;;;;;;;14.55;7.53;;;0.30;99.90;;;;;;4094952;28;20034;-67
2023/02/08 06:47:05;;;;;;;16.00;8.20;;;0.40;99.90;;;;;;4092847;28;20351;-67
2023/02/08 06:49:05;;;;;;;15.18;7.57;;;0.40;99.90;;;;;;4097343;28;20057;-66
2023/02/08 06:51:06;;;;;;;14.98;7.68;;;0.40;99.90;;;;;;4091457;28;20044;-67
2023/02/08 06:53:07;;;;;;;17.42;8.57;;;0.30;99.90;;;;;;4093984;28;20070;-67
2023/02/08 06:55:07;;;;;;;19.00;9.05;;;0.40;99.90;;;;;;4094293;28;20082;-65
2023/02/08 06:57:08;;;;;;;16.85;9.32;;;0.40;99.90;;;;;;4097142;28;20046;-66
2023/02/08 06:59:09;;;;;;;25.05;13.20;;;0.40;99.90;;;;;;4095520;28;20048;-67
2023/02/08 07:01:13;;;;;;;19.60;11.02;;;0.50;99.90;;;;;;4093064;28;20040;-67
2023/02/08 07:03:17;;;;;;;20.83;10.20;;;0.50;99.90;;;;;;4088051;28;20413;-67
2023/02/08 07:05:18;;;;;;;20.33;9.85;;;0.50;99.90;;;;;;4079348;29;20040;-67
2023/02/08 07:07:18;;;;;;;18.67;10.02;;;0.50;99.90;;;;;;4093679;28;20111;-67
2023/02/08 07:09:19;;;;;;;20.83;11.02;;;0.50;99.90;;;;;;4097142;28;20051;-67
2023/02/08 07:11:20;;;;;;;20.80;11.32;;;0.50;99.90;;;;;;4093135;28;20031;-67
2023/02/08 07:13:21;;;;;;;17.58;10.30;;;0.50;99.90;;;;;;4089033;28;20114;-66
2023/02/08 07:15:21;;;;;;;22.98;10.65;;;0.50;99.90;;;;;;4094723;28;20577;-67
2023/02/08 07:17:22;;;;;;;20.20;10.35;;;0.50;99.90;;;;;;4084632;28;20341;-67
2023/02/08 07:19:23;;;;;;;19.83;9.85;;;0.50;99.90;;;;;;4093453;28;20035;-66
2023/02/08 07:21:23;;;;;;;20.42;10.73;;;0.50;99.90;;;;;;4091344;28;20565;-66
2023/02/08 07:23:24;;;;;;;22.27;10.23;;;0.40;99.90;;;;;;4093054;28;20142;-65
2023/02/08 07:25:25;;;;;;;22.98;10.88;;;0.40;99.90;;;;;;4094853;28;20435;-67
2023/02/08 07:27:25;;;;;;;23.63;11.43;;;0.50;99.90;;;;;;4092035;28;20091;-66
2023/02/08 07:29:28;;;;;;;19.92;10.15;;;0.50;99.90;;;;;;4091127;28;20502;-66
2023/02/08 07:31:29;;;;;;;21.15;11.85;;;0.50;99.90;;;;;;4091882;28;20047;-67
2023/02/08 07:33:29;;;;;;;20.10;9.95;;;0.50;99.90;;;;;;4092351;28;20049;-67
2023/02/08 07:35:30;;;;;;;19.52;10.32;;;0.50;99.90;;;;;;4091855;28;20031;-66
2023/02/08 07:37:31;;;;;;;19.50;10.23;;;0.50;99.90;;;;;;4077689;28;20035;-66
2023/02/08 07:39:32;;;;;;;17.02;9.18;;;0.50;99.90;;;;;;4093707;28;20047;-66
2023/02/08 07:41:33;;;;;;;21.90;10.27;;;0.50;99.90;;;;;;4086691;28;20058;-67
2023/02/08 07:43:35;;;;;;;22.60;11.73;;;0.50;99.90;;;;;;4090824;28;20035;-67
2023/02/08 07:45:38;;;;;;;20.17;10.50;;;0.50;99.90;;;;;;4087227;28;20039;-69
2023/02/08 07:47:38;;;;;;;20.52;10.50;;;0.50;99.90;;;;;;4093296;28;20442;-69
2023/02/08 07:49:39;;;;;;;19.40;10.70;;;0.60;99.90;;;;;;4092166;28;20126;-69
2023/02/08 07:51:40;;;;;;;20.17;10.48;;;0.60;99.90;;;;;;4086666;28;20047;-69
2023/02/08 07:53:40;;;;;;;20.70;10.20;;;0.60;99.90;;;;;;4096998;28;20443;-69
2023/02/08 07:55:43;;;;;;;20.00;10.23;;;0.60;99.90;;;;;;4095045;28;20076;-69
2023/02/08 07:57:46;;;;;;;18.98;9.30;;;0.60;99.90;;;;;;4085806;28;20476;-68
2023/02/08 07:59:47;;;;;;;19.90;11.13;;;0.70;99.90;;;;;;4087835;28;20028;-68
2023/02/08 08:01:47;;;;;;;16.27;9.30;;;0.70;99.90;;;;;;4093748;28;20035;-69
2023/02/08 08:03:49;;;;;;;18.95;9.70;;;0.80;99.90;;;;;;4093209;29;20043;-69
2023/02/08 08:05:50;;;;;;;15.95;8.90;;;1.00;99.90;;;;;;4082316;28;20113;-69
2023/02/08 08:07:51;;;;;;;17.92;9.57;;;1.20;99.90;;;;;;4095663;28;20090;-70
2023/02/08 08:09:51;;;;;;;17.67;9.60;;;1.50;99.90;;;;;;4085646;28;20044;-70
2023/02/08 08:11:52;;;;;;;17.20;8.90;;;1.80;99.90;;;;;;4094750;29;20130;-70
2023/02/08 08:13:52;;;;;;;17.92;9.73;;;2.00;99.90;;;;;;4096883;28;20027;-71
2023/02/08 08:15:53;;;;;;;17.33;9.80;;;2.40;99.90;;;;;;4095278;28;20034;-71
2023/02/08 08:17:54;;;;;;;18.38;9.60;;;2.60;99.90;;;;;;4094206;28;20046;-68
2023/02/08 08:19:54;;;;;;;19.25;9.85;;;2.90;99.90;;;;;;4095234;28;20528;-66
2023/02/08 08:21:55;;;;;;;17.27;9.27;;;3.30;99.90;;;;;;4095873;28;20066;-69
2023/02/08 08:23:55;;;;;;;15.88;8.15;;;3.70;99.90;;;;;;4095069;28;20035;-69
2023/02/08 08:25:56;;;;;;;16.95;9.13;;;4.00;99.90;;;;;;4094850;28;20043;-69
2023/02/08 08:27:56;;;;;;;17.10;8.55;;;4.40;99.90;;;;;;4096637;28;20038;-68
2023/02/08 08:29:58;;;;;;;16.10;8.95;;;4.80;99.90;;;;;;4094998;28;20094;-69
2023/02/08 08:31:59;;;;;;;21.53;9.93;;;5.10;99.90;;;;;;4095055;28;20067;-68
2023/02/08 08:33:59;;;;;;;16.45;9.68;;;5.50;99.90;;;;;;4095446;28;20670;-69
2023/02/08 08:36:00;;;;;;;19.45;10.35;;;5.70;99.90;;;;;;4096465;28;20532;-70
2023/02/08 08:38:01;;;;;;;19.17;10.60;;;6.10;99.90;;;;;;4095244;28;20400;-72
2023/02/08 08:40:03;;;;;;;16.83;10.13;;;6.30;99.90;;;;;;4096001;28;20082;-69
2023/02/08 08:42:04;;;;;;;19.20;9.63;;;6.70;99.90;;;;;;4096014;28;20399;-69
2023/02/08 08:44:05;;;;;;;17.95;9.27;;;6.90;99.90;;;;;;4096292;28;20478;-70
2023/02/08 08:46:06;;;;;;;14.90;9.00;;;7.20;99.90;;;;;;4095427;28;20043;-70
2023/02/08 08:48:07;;;;;;;13.57;7.60;;;7.60;99.90;;;;;;4096532;28;20031;-71
2023/02/08 08:50:08;;;;;;;13.27;7.55;;;7.80;99.90;;;;;;4095416;28;20031;-71
2023/02/08 08:52:10;;;;;;;14.80;7.15;;;8.00;99.60;;;;;;4097339;28;20035;-70
2023/02/08 08:54:11;;;;;;;16.38;6.78;;;8.40;99.90;;;;;;4097916;28;20046;-70
2023/02/08 08:56:11;;;;;;;12.07;6.35;;;8.60;97.60;;;;;;4094519;28;20039;-71
2023/02/08 08:58:12;;;;;;;13.48;7.10;;;8.70;95.60;;;;;;4095941;28;20043;-70
2023/02/08 09:00:13;;;;;;;16.50;7.53;;;9.00;95.10;;;;;;4094879;28;20028;-71
2023/02/08 09:02:14;;;;;;;11.60;6.82;;;9.20;93.30;;;;;;4095669;28;20035;-69
2023/02/08 09:04:15;;;;;;;11.15;6.32;;;9.40;91.30;;;;;;4096865;28;20387;-69
2023/02/08 09:06:16;;;;;;;10.25;6.40;;;9.60;91.60;;;;;;4093996;28;20035;-70
2023/02/08 09:08:17;;;;;;;11.07;6.35;;;9.80;83.50;;;;;;4097210;28;20059;-70
2023/02/08 09:10:18;;;;;;;12.25;6.38;;;9.70;81.90;;;;;;4093833;28;20058;-70
2023/02/08 09:12:19;;;;;;;13.45;7.75;;;10.10;87.50;;;;;;4095199;28;20035;-70
2023/02/08 09:14:19;;;;;;;9.57;6.20;;;10.10;84.40;;;;;;4096492;28;20023;-70
2023/02/08 09:16:20;;;;;;;11.77;6.22;;;10.30;83.10;;;;;;4093446;28;20087;-71
2023/02/08 09:18:21;;;;;;;12.77;6.63;;;10.30;77.60;;;;;;4096364;28;20094;-70
2023/02/08 09:20:22;;;;;;;9.00;5.95;;;10.40;78.30;;;;;;4096120;28;20503;-70
2023/02/08 09:22:23;;;;;;;11.07;6.20;;;10.40;77.00;;;;;;4095919;28;20437;-70
2023/02/08 09:24:24;;;;;;;10.32;5.88;;;10.40;75.00;;;;;;4094815;28;20019;-70
2023/02/08 09:26:25;;;;;;;8.70;5.63;;;10.40;75.30;;;;;;4093862;28;20524;-70
2023/02/08 09:28:25;;;;;;;13.85;6.63;;;10.00;72.10;;;;;;4095061;28;20066;-68
2023/02/08 09:30:26;;;;;;;9.48;5.78;;;9.70;71.50;;;;;;4093471;28;20114;-69
2023/02/08 09:32:32;;;;;;;10.52;6.20;;;9.60;74.60;;;;;;4096355;28;20388;-70
2023/02/08 09:34:33;;;;;;;10.98;6.43;;;9.50;75.30;;;;;;4096167;28;20054;-70
2023/02/08 09:36:37;;;;;;;11.00;6.50;;;9.40;76.10;;;;;;4094939;28;20055;-70
2023/02/08 09:38:38;;;;;;;12.68;6.20;;;9.30;78.20;;;;;;4095227;28;20028;-70
2023/02/08 09:40:52;;;;;;;10.60;6.40;;;9.30;78.60;;;;;;4094529;28;20431;-70
2023/02/08 09:43:16;;;;;;;13.63;6.95;;;9.10;75.90;;;;;;4094735;28;20035;-69
2023/02/08 09:45:29;;;;;;;12.07;6.30;;;8.90;77.60;;;;;;4090884;28;20368;-70
2023/02/08 09:47:34;;;;;;;14.07;6.32;;;8.70;75.20;;;;;;4094885;28;20090;-69
2023/02/08 09:49:47;;;;;;;10.57;6.32;;;8.50;75.60;;;;;;4094769;28;20044;-69
2023/02/08 09:52:01;;;;;;;9.15;6.30;;;8.60;78.60;;;;;;4090881;28;20048;-69
2023/02/08 09:54:17;;;;;;;11.88;5.72;;;8.50;77.50;;;;;;4097295;28;20066;-69
2023/02/08 09:56:26;;;;;;;10.57;5.80;;;8.40;77.70;;;;;;4092691;28;20118;-68
2023/02/08 09:58:42;;;;;;;10.13;6.07;;;8.20;75.60;;;;;;4094962;28;20047;-68
2023/02/08 10:00:46;;;;;;;10.13;6.00;;;8.20;81.10;;;;;;4095130;28;20477;-68
2023/02/08 10:02:48;;;;;;;11.60;6.72;;;8.20;79.60;;;;;;4094558;28;20059;-68
2023/02/08 10:05:01;;;;;;;11.75;6.53;;;8.20;81.80;;;;;;4094710;28;20030;-68
2023/02/08 10:07:02;;;;;;;10.82;6.57;;;8.10;78.40;;;;;;4091842;28;20118;-69
2023/02/08 10:09:06;;;;;;;11.70;6.47;;;8.10;80.00;;;;;;4094422;28;20063;-68
2023/02/08 10:11:38;;;;;;;10.93;5.60;;;7.90;77.80;;;;;;4094615;28;20494;-68
2023/02/08 10:13:53;;;;;;;10.73;5.50;;;7.90;80.00;;;;;;4093381;28;20035;-68
2023/02/08 10:16:29;;;;;;;9.95;5.43;;;7.90;79.10;;;;;;4094233;28;20044;-68
2023/02/08 10:18:45;;;;;;;11.07;5.55;;;7.90;80.50;;;;;;4095447;28;20047;-68
2023/02/08 10:20:54;;;;;;;9.38;5.13;;;7.80;74.60;;;;;;4091900;28;20727;-67
2023/02/08 10:23:13;;;;;;;9.82;5.10;;;7.80;77.80;;;;;;4092409;28;20073;-68
2023/02/08 10:25:49;;;;;;;10.43;5.78;;;7.80;74.30;;;;;;4092338;28;20538;-67
2023/02/08 10:28:40;;;;;;;9.80;5.65;;;7.70;74.70;;;;;;4094309;28;20054;-67
2023/02/08 10:31:05;;;;;;;9.35;5.40;;;7.50;73.60;;;;;;4068186;28;20078;-68
2023/02/08 10:33:17;;;;;;;8.63;4.80;;;7.40;75.40;;;;;;4093803;28;20431;-67
2023/02/08 10:35:36;;;;;;;10.30;5.43;;;7.40;76.40;;;;;;4085936;28;20031;-67
2023/02/08 10:37:42;;;;;;;10.07;5.60;;;7.50;73.60;;;;;;4083449;28;20070;-67
2023/02/08 10:39:43;;;;;;;9.95;5.18;;;7.50;76.30;;;;;;4089387;29;20027;-68
2023/02/08 10:41:45;;;;;;;9.55;5.25;;;7.50;75.60;;;;;;4094090;28;20058;-68
2023/02/08 10:44:09;;;;;;;8.80;5.20;;;7.50;77.10;;;;;;4094377;28;20050;-67
2023/02/08 10:46:27;;;;;;;10.82;5.15;;;7.60;73.20;;;;;;4093624;28;20035;-68
2023/02/08 10:48:47;;;;;;;11.45;5.28;;;7.60;75.00;;;;;;4092736;28;20543;-67